sensor_id;sensor_type;location;lat;lon;timestamp;temperature;humidity
15717;DHT22;7960;50.908;4.204;2022-12-10T00:00:04;-0.30;99.90
15717;DHT22;7960;50.908;4.204;2022-12-10T00:02:31;-0.50;99.90
15717;DHT22;7960;50.908;4.204;2022-12-10T00:04:58;-0.40;99.90
15717;DHT22;7960;50.908;4.204;2022-12-10T00:07:25;-0.30;99.90
15717;DHT22;7960;50.908;4.204;2022-12-10T00:09:52;-0.50;99.90
15717;DHT22;7960;50.908;4.204;2022-12-10T00:12:19;-0.40;99.90
15717;DHT22;7960;50.908;4.204;2022-12-10T00:14:46;-0.30;99.90
15717;DHT22;7960;50.908;4.204;2022-12-10T00:17:14;-0.30;99.90
15717;DHT22;7960;50.908;4.204;2022-12-10T00:19:41;-0.40;99.90
15717;DHT22;7960;50.908;4.204;2022-12-10T00:22:08;-0.40;99.90
15717;DHT22;7960;50.908;4.204;2022-12-10T00:24:35;-0.40;99.90
15717;DHT22;7960;50.908;4.204;2022-12-10T00:27:02;-0.50;99.90
15717;DHT22;7960;50.908;4.204;2022-12-10T00:29:28;-0.30;99.90
15717;DHT22;7960;50.908;4.204;2022-12-10T00:31:55;-0.30;99.90
15717;DHT22;7960;50.908;4.204;2022-12-10T00:34:23;-0.40;99.90
15717;DHT22;7960;50.908;4.204;2022-12-10T00:36:50;-0.50;99.90
15717;DHT22;7960;50.908;4.204;2022-12-10T00:39:19;-0.70;99.90
15717;DHT22;7960;50.908;4.204;2022-12-10T00:41:47;-0.50;99.90
15717;DHT22;7960;50.908;4.204;2022-12-10T00:44:15;-0.60;99.90
15717;DHT22;7960;50.908;4.204;2022-12-10T00:46:42;-0.80;99.90
15717;DHT22;7960;50.908;4.204;2022-12-10T00:49:09;-0.90;99.90
15717;DHT22;7960;50.908;4.204;2022-12-10T00:51:38;-0.80;99.90
15717;DHT22;7960;50.908;4.204;2022-12-10T00:54:05;-0.70;99.90
15717;DHT22;7960;50.908;4.204;2022-12-10T00:56:33;-0.70;99.90
15717;DHT22;7960;50.908;4.204;2022-12-10T00:59:01;-0.80;99.90
15717;DHT22;7960;50.908;4.204;2022-12-10T01:01:29;-0.70;99.90
15717;DHT22;7960;50.908;4.204;2022-12-10T01:03:58;-0.80;99.90
15717;DHT22;7960;50.908;4.204;2022-12-10T01:06:28;-0.70;99.90
15717;DHT22;7960;50.908;4.204;2022-12-10T01:08:59;-0.80;99.90
15717;DHT22;7960;50.908;4.204;2022-12-10T01:11:28;-0.80;99.90
15717;DHT22;7960;50.908;4.204;2022-12-10T01:13:56;-0.70;99.90
15717;DHT22;7960;50.908;4.204;2022-12-10T01:16:24;-0.90;99.90
15717;DHT22;7960;50.908;4.204;2022-12-10T01:18:53;-0.90;99.90
15717;DHT22;7960;50.908;4.204;2022-12-10T01:21:20;-1.00;99.90
15717;DHT22;7960;50.908;4.204;2022-12-10T01:23:49;-0.80;99.90
15717;DHT22;7960;50.908;4.204;2022-12-10T01:26:20;-0.80;99.90
15717;DHT22;7960;50.908;4.204;2022-12-10T01:28:48;-0.90;99.90
15717;DHT22;7960;50.908;4.204;2022-12-10T01:31:17;-0.70;99.90
15717;DHT22;7960;50.908;4.204;2022-12-10T01:33:45;-0.60;99.90
15717;DHT22;7960;50.908;4.204;2022-12-10T01:36:14;-0.50;99.90
15717;DHT22;7960;50.908;4.204;2022-12-10T01:38:41;-0.60;99.90
15717;DHT22;7960;50.908;4.204;2022-12-10T01:41:14;-0.80;99.90
15717;DHT22;7960;50.908;4.204;2022-12-10T01:43:55;-0.90;99.90
15717;DHT22;7960;50.908;4.204;2022-12-10T01:46:23;-0.90;99.90
15717;DHT22;7960;50.908;4.204;2022-12-10T01:48:51;-0.90;99.90
15717;DHT22;7960;50.908;4.204;2022-12-10T01:51:18;-0.70;99.90
15717;DHT22;7960;50.908;4.204;2022-12-10T01:53:46;-0.70;99.90
15717;DHT22;7960;50.908;4.204;2022-12-10T01:56:15;-0.70;99.90
15717;DHT22;7960;50.908;4.204;2022-12-10T01:58:43;-0.50;99.90
15717;DHT22;7960;50.908;4.204;2022-12-10T02:01:15;-0.30;99.90
15717;DHT22;7960;50.908;4.204;2022-12-10T02:03:51;-0.30;99.90
15717;DHT22;7960;50.908;4.204;2022-12-10T02:06:31;-0.40;99.90
15717;DHT22;7960;50.908;4.204;2022-12-10T02:09:07;-0.70;99.90
15717;DHT22;7960;50.908;4.204;2022-12-10T02:11:41;-0.80;99.90
15717;DHT22;7960;50.908;4.204;2022-12-10T02:14:13;-0.70;99.90
15717;DHT22;7960;50.908;4.204;2022-12-10T02:16:48;-0.70;99.90
15717;DHT22;7960;50.908;4.204;2022-12-10T02:19:22;-0.80;99.90
15717;DHT22;7960;50.908;4.204;2022-12-10T02:21:53;-0.80;99.90
15717;DHT22;7960;50.908;4.204;2022-12-10T02:24:26;-0.70;99.90
15717;DHT22;7960;50.908;4.204;2022-12-10T02:26:58;-0.70;99.90
15717;DHT22;7960;50.908;4.204;2022-12-10T02:29:30;-0.70;99.90
15717;DHT22;7960;50.908;4.204;2022-12-10T02:32:01;-0.80;99.90
15717;DHT22;7960;50.908;4.204;2022-12-10T02:34:32;-0.80;99.90
15717;DHT22;7960;50.908;4.204;2022-12-10T02:37:03;-0.80;99.90
15717;DHT22;7960;50.908;4.204;2022-12-10T02:39:35;-0.90;99.90
15717;DHT22;7960;50.908;4.204;2022-12-10T02:42:04;-0.90;99.90
15717;DHT22;7960;50.908;4.204;2022-12-10T02:44:33;-1.00;99.90
15717;DHT22;7960;50.908;4.204;2022-12-10T02:47:02;-0.90;99.90
15717;DHT22;7960;50.908;4.204;2022-12-10T02:49:30;-1.00;99.90
15717;DHT22;7960;50.908;4.204;2022-12-10T02:51:57;-0.90;99.90
15717;DHT22;7960;50.908;4.204;2022-12-10T02:54:39;-0.90;99.90
15717;DHT22;7960;50.908;4.204;2022-12-10T02:57:18;-0.90;99.90
15717;DHT22;7960;50.908;4.204;2022-12-10T03:03:09;-1.00;99.90
15717;DHT22;7960;50.908;4.204;2022-12-10T03:05:42;-1.10;99.90
15717;DHT22;7960;50.908;4.204;2022-12-10T03:08:14;-1.00;99.90
15717;DHT22;7960;50.908;4.204;2022-12-10T03:10:47;-1.00;99.90
15717;DHT22;7960;50.908;4.204;2022-12-10T03:13:21;-0.90;99.90
15717;DHT22;7960;50.908;4.204;2022-12-10T03:15:53;-0.90;99.90
15717;DHT22;7960;50.908;4.204;2022-12-10T03:18:22;-0.90;99.90
15717;DHT22;7960;50.908;4.204;2022-12-10T03:20:52;-0.80;99.90
15717;DHT22;7960;50.908;4.204;2022-12-10T03:23:21;-0.80;99.90
15717;DHT22;7960;50.908;4.204;2022-12-10T03:25:50;-0.80;99.90
15717;DHT22;7960;50.908;4.204;2022-12-10T03:28:18;-0.90;99.90
15717;DHT22;7960;50.908;4.204;2022-12-10T03:30:47;-0.90;99.90
15717;DHT22;7960;50.908;4.204;2022-12-10T03:33:17;-0.80;99.90
15717;DHT22;7960;50.908;4.204;2022-12-10T03:35:45;-0.80;99.90
15717;DHT22;7960;50.908;4.204;2022-12-10T03:38:13;-0.90;99.90
15717;DHT22;7960;50.908;4.204;2022-12-10T03:40:40;-0.90;99.90
15717;DHT22;7960;50.908;4.204;2022-12-10T03:43:07;-0.80;99.90
15717;DHT22;7960;50.908;4.204;2022-12-10T03:45:34;-0.80;99.90
15717;DHT22;7960;50.908;4.204;2022-12-10T03:48:01;-0.80;99.90
15717;DHT22;7960;50.908;4.204;2022-12-10T03:50:29;-0.70;99.90
15717;DHT22;7960;50.908;4.204;2022-12-10T03:52:56;-0.80;99.90
15717;DHT22;7960;50.908;4.204;2022-12-10T03:55:23;-0.80;99.90
15717;DHT22;7960;50.908;4.204;2022-12-10T03:57:49;-0.80;99.90
15717;DHT22;7960;50.908;4.204;2022-12-10T04:00:17;-0.80;99.90
15717;DHT22;7960;50.908;4.204;2022-12-10T04:02:43;-1.00;99.90
15717;DHT22;7960;50.908;4.204;2022-12-10T04:05:11;-1.00;99.90
15717;DHT22;7960;50.908;4.204;2022-12-10T04:07:39;-1.00;99.90
15717;DHT22;7960;50.908;4.204;2022-12-10T04:10:06;-1.00;99.90
15717;DHT22;7960;50.908;4.204;2022-12-10T04:12:34;-1.10;99.90
15717;DHT22;7960;50.908;4.204;2022-12-10T04:15:00;-1.00;99.90
15717;DHT22;7960;50.908;4.204;2022-12-10T04:17:44;-1.00;99.90
15717;DHT22;7960;50.908;4.204;2022-12-10T04:20:11;-1.00;99.90
15717;DHT22;7960;50.908;4.204;2022-12-10T04:22:53;-0.90;99.90
15717;DHT22;7960;50.908;4.204;2022-12-10T04:25:38;-1.00;99.90
15717;DHT22;7960;50.908;4.204;2022-12-10T04:28:22;-1.10;99.90
15717;DHT22;7960;50.908;4.204;2022-12-10T04:30:49;-1.20;99.90
15717;DHT22;7960;50.908;4.204;2022-12-10T04:33:16;-1.10;99.90
15717;DHT22;7960;50.908;4.204;2022-12-10T04:35:43;-1.10;99.90
15717;DHT22;7960;50.908;4.204;2022-12-10T04:38:11;-1.00;99.90
15717;DHT22;7960;50.908;4.204;2022-12-10T04:40:38;-1.00;99.90
15717;DHT22;7960;50.908;4.204;2022-12-10T04:43:05;-0.90;99.90
15717;DHT22;7960;50.908;4.204;2022-12-10T04:45:33;-0.90;99.90
15717;DHT22;7960;50.908;4.204;2022-12-10T04:48:00;-0.90;99.90
15717;DHT22;7960;50.908;4.204;2022-12-10T04:50:27;-0.90;99.90
15717;DHT22;7960;50.908;4.204;2022-12-10T04:52:54;-1.00;99.90
15717;DHT22;7960;50.908;4.204;2022-12-10T04:55:22;-1.00;99.90
15717;DHT22;7960;50.908;4.204;2022-12-10T04:57:49;-1.10;99.90
15717;DHT22;7960;50.908;4.204;2022-12-10T05:00:16;-1.10;99.90
15717;DHT22;7960;50.908;4.204;2022-12-10T05:02:43;-1.10;99.90
15717;DHT22;7960;50.908;4.204;2022-12-10T05:05:10;-1.10;99.90
15717;DHT22;7960;50.908;4.204;2022-12-10T05:07:37;-1.10;99.90
15717;DHT22;7960;50.908;4.204;2022-12-10T05:10:05;-1.10;99.90
15717;DHT22;7960;50.908;4.204;2022-12-10T05:12:33;-1.00;99.90
15717;DHT22;7960;50.908;4.204;2022-12-10T05:15:00;-1.10;99.90
15717;DHT22;7960;50.908;4.204;2022-12-10T05:17:27;-1.10;99.90
15717;DHT22;7960;50.908;4.204;2022-12-10T05:19:54;-1.10;99.90
15717;DHT22;7960;50.908;4.204;2022-12-10T05:22:21;-1.20;99.90
15717;DHT22;7960;50.908;4.204;2022-12-10T05:25:08;-1.20;99.90
15717;DHT22;7960;50.908;4.204;2022-12-10T05:27:36;-1.10;99.90
15717;DHT22;7960;50.908;4.204;2022-12-10T05:30:04;-1.00;99.90
15717;DHT22;7960;50.908;4.204;2022-12-10T05:32:32;-1.00;99.90
15717;DHT22;7960;50.908;4.204;2022-12-10T05:34:59;-0.90;99.90
15717;DHT22;7960;50.908;4.204;2022-12-10T05:37:27;-1.00;99.90
15717;DHT22;7960;50.908;4.204;2022-12-10T05:39:54;-1.20;99.90
15717;DHT22;7960;50.908;4.204;2022-12-10T05:42:21;-1.20;99.90
15717;DHT22;7960;50.908;4.204;2022-12-10T05:44:49;-1.10;99.90
15717;DHT22;7960;50.908;4.204;2022-12-10T05:47:16;-1.00;99.90
15717;DHT22;7960;50.908;4.204;2022-12-10T05:49:43;-1.00;99.90
15717;DHT22;7960;50.908;4.204;2022-12-10T05:52:09;-1.20;99.90
15717;DHT22;7960;50.908;4.204;2022-12-10T05:54:36;-1.10;99.90
15717;DHT22;7960;50.908;4.204;2022-12-10T05:57:03;-1.00;99.90
15717;DHT22;7960;50.908;4.204;2022-12-10T05:59:30;-1.00;99.90
15717;DHT22;7960;50.908;4.204;2022-12-10T06:01:58;-1.00;99.90
15717;DHT22;7960;50.908;4.204;2022-12-10T06:04:25;-0.90;99.90
15717;DHT22;7960;50.908;4.204;2022-12-10T06:06:52;-0.80;99.90
15717;DHT22;7960;50.908;4.204;2022-12-10T06:09:19;-0.90;99.90
15717;DHT22;7960;50.908;4.204;2022-12-10T06:11:46;-1.00;99.90
15717;DHT22;7960;50.908;4.204;2022-12-10T06:14:12;-1.00;99.90
15717;DHT22;7960;50.908;4.204;2022-12-10T06:16:40;-1.10;99.90
15717;DHT22;7960;50.908;4.204;2022-12-10T06:19:09;-1.00;99.90
15717;DHT22;7960;50.908;4.204;2022-12-10T06:21:36;-1.10;99.90
15717;DHT22;7960;50.908;4.204;2022-12-10T06:24:04;-1.10;99.90
15717;DHT22;7960;50.908;4.204;2022-12-10T06:26:30;-1.00;99.90
15717;DHT22;7960;50.908;4.204;2022-12-10T06:28:58;-1.10;99.90
15717;DHT22;7960;50.908;4.204;2022-12-10T06:31:25;-1.10;99.90
15717;DHT22;7960;50.908;4.204;2022-12-10T06:33:52;-1.00;99.90
15717;DHT22;7960;50.908;4.204;2022-12-10T06:36:22;-1.00;99.90
15717;DHT22;7960;50.908;4.204;2022-12-10T06:38:49;-1.00;99.90
15717;DHT22;7960;50.908;4.204;2022-12-10T06:41:18;-1.00;99.90
15717;DHT22;7960;50.908;4.204;2022-12-10T06:43:45;-0.90;99.90
15717;DHT22;7960;50.908;4.204;2022-12-10T06:46:14;-0.90;99.90
15717;DHT22;7960;50.908;4.204;2022-12-10T06:48:42;-0.80;99.90
15717;DHT22;7960;50.908;4.204;2022-12-10T06:51:10;-0.90;99.90
15717;DHT22;7960;50.908;4.204;2022-12-10T06:53:39;-0.80;99.90
15717;DHT22;7960;50.908;4.204;2022-12-10T06:56:07;-0.80;99.90
15717;DHT22;7960;50.908;4.204;2022-12-10T06:58:35;-0.80;99.90
15717;DHT22;7960;50.908;4.204;2022-12-10T07:01:04;-0.80;99.90
15717;DHT22;7960;50.908;4.204;2022-12-10T07:03:31;-0.90;99.90
15717;DHT22;7960;50.908;4.204;2022-12-10T07:05:58;-0.70;99.90
15717;DHT22;7960;50.908;4.204;2022-12-10T07:08:25;-0.80;99.90
15717;DHT22;7960;50.908;4.204;2022-12-10T07:10:54;-0.70;99.90
15717;DHT22;7960;50.908;4.204;2022-12-10T07:13:21;-0.70;99.90
15717;DHT22;7960;50.908;4.204;2022-12-10T07:15:48;-0.80;99.90
15717;DHT22;7960;50.908;4.204;2022-12-10T07:18:15;-0.90;99.90
15717;DHT22;7960;50.908;4.204;2022-12-10T07:20:42;-1.00;99.90
15717;DHT22;7960;50.908;4.204;2022-12-10T07:23:08;-1.00;99.90
15717;DHT22;7960;50.908;4.204;2022-12-10T07:25:35;-1.10;99.90
15717;DHT22;7960;50.908;4.204;2022-12-10T07:28:03;-1.10;99.90
15717;DHT22;7960;50.908;4.204;2022-12-10T07:30:30;-1.10;99.90
15717;DHT22;7960;50.908;4.204;2022-12-10T07:32:57;-1.00;99.90
15717;DHT22;7960;50.908;4.204;2022-12-10T07:35:24;-1.10;99.90
15717;DHT22;7960;50.908;4.204;2022-12-10T07:37:51;-1.00;99.90
15717;DHT22;7960;50.908;4.204;2022-12-10T07:40:18;-0.90;99.90
15717;DHT22;7960;50.908;4.204;2022-12-10T07:42:45;-0.90;99.90
15717;DHT22;7960;50.908;4.204;2022-12-10T07:45:13;-0.80;99.90
15717;DHT22;7960;50.908;4.204;2022-12-10T07:47:40;-0.80;99.90
15717;DHT22;7960;50.908;4.204;2022-12-10T07:50:07;-0.80;99.90
15717;DHT22;7960;50.908;4.204;2022-12-10T07:52:34;-0.80;99.90
15717;DHT22;7960;50.908;4.204;2022-12-10T07:55:01;-0.70;99.90
15717;DHT22;7960;50.908;4.204;2022-12-10T07:57:29;-0.80;99.90
15717;DHT22;7960;50.908;4.204;2022-12-10T07:59:56;-0.80;99.90
15717;DHT22;7960;50.908;4.204;2022-12-10T08:02:25;-0.80;99.90
15717;DHT22;7960;50.908;4.204;2022-12-10T08:04:52;-0.80;99.90
15717;DHT22;7960;50.908;4.204;2022-12-10T08:07:18;-0.80;99.90
15717;DHT22;7960;50.908;4.204;2022-12-10T08:09:45;-0.90;99.90
15717;DHT22;7960;50.908;4.204;2022-12-10T08:12:12;-0.90;99.90
15717;DHT22;7960;50.908;4.204;2022-12-10T08:14:39;-0.90;99.90
15717;DHT22;7960;50.908;4.204;2022-12-10T08:17:07;-0.90;99.90
15717;DHT22;7960;50.908;4.204;2022-12-10T08:19:35;-0.80;99.90
15717;DHT22;7960;50.908;4.204;2022-12-10T08:22:02;-0.90;99.90
15717;DHT22;7960;50.908;4.204;2022-12-10T08:24:29;-0.90;99.90
15717;DHT22;7960;50.908;4.204;2022-12-10T08:26:56;-0.90;99.90
15717;DHT22;7960;50.908;4.204;2022-12-10T08:29:23;-0.90;99.90
15717;DHT22;7960;50.908;4.204;2022-12-10T08:31:50;-1.00;99.90
15717;DHT22;7960;50.908;4.204;2022-12-10T08:34:18;-0.90;99.90
15717;DHT22;7960;50.908;4.204;2022-12-10T08:36:46;-0.90;99.90
15717;DHT22;7960;50.908;4.204;2022-12-10T08:39:13;-0.90;99.90
15717;DHT22;7960;50.908;4.204;2022-12-10T08:41:42;-0.90;99.90
15717;DHT22;7960;50.908;4.204;2022-12-10T08:44:10;-0.90;99.90
15717;DHT22;7960;50.908;4.204;2022-12-10T08:46:37;-1.00;99.90
15717;DHT22;7960;50.908;4.204;2022-12-10T08:49:05;-1.00;99.90
15717;DHT22;7960;50.908;4.204;2022-12-10T08:51:33;-1.00;99.90
15717;DHT22;7960;50.908;4.204;2022-12-10T08:54:02;-1.00;99.90
15717;DHT22;7960;50.908;4.204;2022-12-10T08:56:29;-1.10;99.90
15717;DHT22;7960;50.908;4.204;2022-12-10T08:58:55;-1.00;99.90
15717;DHT22;7960;50.908;4.204;2022-12-10T09:01:22;-0.90;99.90
15717;DHT22;7960;50.908;4.204;2022-12-10T09:03:49;-0.90;99.90
15717;DHT22;7960;50.908;4.204;2022-12-10T09:06:18;-0.80;99.90
15717;DHT22;7960;50.908;4.204;2022-12-10T09:08:46;-0.80;99.90
15717;DHT22;7960;50.908;4.204;2022-12-10T09:11:16;-0.90;99.90
15717;DHT22;7960;50.908;4.204;2022-12-10T09:13:44;-0.80;99.90
15717;DHT22;7960;50.908;4.204;2022-12-10T09:16:12;-0.70;99.90
15717;DHT22;7960;50.908;4.204;2022-12-10T09:18:39;-0.70;99.90
15717;DHT22;7960;50.908;4.204;2022-12-10T09:21:07;-0.60;99.90
15717;DHT22;7960;50.908;4.204;2022-12-10T09:23:34;-0.50;99.90
15717;DHT22;7960;50.908;4.204;2022-12-10T09:26:01;-0.60;99.90
15717;DHT22;7960;50.908;4.204;2022-12-10T09:28:29;-0.60;99.90
15717;DHT22;7960;50.908;4.204;2022-12-10T09:30:56;-0.60;99.90
15717;DHT22;7960;50.908;4.204;2022-12-10T09:33:23;-0.70;99.90
15717;DHT22;7960;50.908;4.204;2022-12-10T09:35:50;-0.80;99.90
15717;DHT22;7960;50.908;4.204;2022-12-10T09:38:17;-0.60;99.90
15717;DHT22;7960;50.908;4.204;2022-12-10T09:40:48;-0.50;99.90
15717;DHT22;7960;50.908;4.204;2022-12-10T09:43:22;-0.50;99.90
15717;DHT22;7960;50.908;4.204;2022-12-10T09:45:59;-0.50;99.90
15717;DHT22;7960;50.908;4.204;2022-12-10T09:48:34;-0.60;99.90
15717;DHT22;7960;50.908;4.204;2022-12-10T09:51:08;-0.50;99.90
15717;DHT22;7960;50.908;4.204;2022-12-10T09:53:39;-0.50;99.90
15717;DHT22;7960;50.908;4.204;2022-12-10T09:56:18;-0.60;99.90
15717;DHT22;7960;50.908;4.204;2022-12-10T09:58:46;-0.50;99.90
15717;DHT22;7960;50.908;4.204;2022-12-10T10:01:16;-0.50;99.90
15717;DHT22;7960;50.908;4.204;2022-12-10T10:03:44;-0.50;99.90
15717;DHT22;7960;50.908;4.204;2022-12-10T10:06:12;-0.40;99.90
15717;DHT22;7960;50.908;4.204;2022-12-10T10:08:42;-0.40;99.90
15717;DHT22;7960;50.908;4.204;2022-12-10T10:11:18;-0.40;99.90
15717;DHT22;7960;50.908;4.204;2022-12-10T10:13:50;-0.40;99.90
15717;DHT22;7960;50.908;4.204;2022-12-10T10:16:26;-0.50;99.90
15717;DHT22;7960;50.908;4.204;2022-12-10T10:18:59;-0.30;99.90
15717;DHT22;7960;50.908;4.204;2022-12-10T10:21:29;-0.30;99.90
15717;DHT22;7960;50.908;4.204;2022-12-10T10:23:58;-0.20;99.90
15717;DHT22;7960;50.908;4.204;2022-12-10T10:26:25;-0.20;99.90
15717;DHT22;7960;50.908;4.204;2022-12-10T10:28:57;-0.20;99.90
15717;DHT22;7960;50.908;4.204;2022-12-10T10:31:28;-0.10;99.90
15717;DHT22;7960;50.908;4.204;2022-12-10T10:33:57;-0.10;99.90
15717;DHT22;7960;50.908;4.204;2022-12-10T10:36:26;-0.10;99.90
15717;DHT22;7960;50.908;4.204;2022-12-10T10:38:53;0.00;99.90
15717;DHT22;7960;50.908;4.204;2022-12-10T10:41:20;0.00;99.90
15717;DHT22;7960;50.908;4.204;2022-12-10T10:43:59;0.00;99.90
15717;DHT22;7960;50.908;4.204;2022-12-10T10:46:28;0.00;99.90
15717;DHT22;7960;50.908;4.204;2022-12-10T10:49:13;0.00;99.90
15717;DHT22;7960;50.908;4.204;2022-12-10T10:51:42;0.10;99.90
15717;DHT22;7960;50.908;4.204;2022-12-10T10:54:10;0.00;99.90
15717;DHT22;7960;50.908;4.204;2022-12-10T10:56:40;0.00;99.90
15717;DHT22;7960;50.908;4.204;2022-12-10T10:59:24;0.10;99.90
15717;DHT22;7960;50.908;4.204;2022-12-10T11:02:00;0.10;99.90
15717;DHT22;7960;50.908;4.204;2022-12-10T11:04:35;0.00;99.90
15717;DHT22;7960;50.908;4.204;2022-12-10T11:07:05;0.20;
15717;DHT22;7960;50.908;4.204;2022-12-10T11:09:38;0.20;99.90
15717;DHT22;7960;50.908;4.204;2022-12-10T11:14:49;0.00;99.90
15717;DHT22;7960;50.908;4.204;2022-12-10T11:17:20;0.10;99.90
15717;DHT22;7960;50.908;4.204;2022-12-10T11:19:55;0.10;99.90
15717;DHT22;7960;50.908;4.204;2022-12-10T11:22:24;0.10;99.90
15717;DHT22;7960;50.908;4.204;2022-12-10T11:24:52;0.30;99.90
15717;DHT22;7960;50.908;4.204;2022-12-10T11:27:29;0.30;99.90
15717;DHT22;7960;50.908;4.204;2022-12-10T11:30:03;0.30;99.90
15717;DHT22;7960;50.908;4.204;2022-12-10T11:32:54;0.20;99.90
15717;DHT22;7960;50.908;4.204;2022-12-10T11:35:34;0.30;99.90
15717;DHT22;7960;50.908;4.204;2022-12-10T11:38:13;0.30;99.90
15717;DHT22;7960;50.908;4.204;2022-12-10T11:40:46;0.30;99.90
15717;DHT22;7960;50.908;4.204;2022-12-10T11:43:33;0.20;99.90
15717;DHT22;7960;50.908;4.204;2022-12-10T11:46:14;0.30;99.90
15717;DHT22;7960;50.908;4.204;2022-12-10T11:48:55;0.30;99.90
15717;DHT22;7960;50.908;4.204;2022-12-10T11:51:30;0.10;99.90
15717;DHT22;7960;50.908;4.204;2022-12-10T11:54:10;0.20;99.90
15717;DHT22;7960;50.908;4.204;2022-12-10T11:56:43;0.20;99.90
15717;DHT22;7960;50.908;4.204;2022-12-10T11:59:18;0.20;99.90
15717;DHT22;7960;50.908;4.204;2022-12-10T12:01:59;0.20;99.90
15717;DHT22;7960;50.908;4.204;2022-12-10T12:04:51;0.20;99.90
15717;DHT22;7960;50.908;4.204;2022-12-10T12:07:34;0.30;99.90
15717;DHT22;7960;50.908;4.204;2022-12-10T12:10:19;0.40;99.90
15717;DHT22;7960;50.908;4.204;2022-12-10T12:12:57;0.30;99.90
15717;DHT22;7960;50.908;4.204;2022-12-10T12:15:29;0.30;99.90
15717;DHT22;7960;50.908;4.204;2022-12-10T12:18:00;0.30;99.90
15717;DHT22;7960;50.908;4.204;2022-12-10T12:20:32;0.40;99.90
15717;DHT22;7960;50.908;4.204;2022-12-10T12:23:05;0.30;99.90
15717;DHT22;7960;50.908;4.204;2022-12-10T12:25:38;0.30;99.90
15717;DHT22;7960;50.908;4.204;2022-12-10T12:28:13;0.40;99.90
15717;DHT22;7960;50.908;4.204;2022-12-10T12:30:43;0.40;99.90
15717;DHT22;7960;50.908;4.204;2022-12-10T12:33:20;0.40;99.90
15717;DHT22;7960;50.908;4.204;2022-12-10T12:35:57;0.40;99.90
15717;DHT22;7960;50.908;4.204;2022-12-10T12:38:28;0.40;99.90
15717;DHT22;7960;50.908;4.204;2022-12-10T12:41:02;0.30;99.90
15717;DHT22;7960;50.908;4.204;2022-12-10T12:43:39;0.40;99.90
15717;DHT22;7960;50.908;4.204;2022-12-10T12:46:12;0.30;99.90
15717;DHT22;7960;50.908;4.204;2022-12-10T12:48:45;0.40;99.90
15717;DHT22;7960;50.908;4.204;2022-12-10T12:51:19;0.50;99.90
15717;DHT22;7960;50.908;4.204;2022-12-10T12:53:46;0.40;99.90
15717;DHT22;7960;50.908;4.204;2022-12-10T12:56:21;0.50;99.90
15717;DHT22;7960;50.908;4.204;2022-12-10T12:59:00;0.40;99.90
15717;DHT22;7960;50.908;4.204;2022-12-10T13:01:32;0.50;99.90
15717;DHT22;7960;50.908;4.204;2022-12-10T13:04:01;0.60;99.90
15717;DHT22;7960;50.908;4.204;2022-12-10T13:06:32;0.70;99.90
15717;DHT22;7960;50.908;4.204;2022-12-10T13:09:23;0.70;99.90
15717;DHT22;7960;50.908;4.204;2022-12-10T13:12:26;0.70;99.90
15717;DHT22;7960;50.908;4.204;2022-12-10T13:15:16;0.80;99.90
15717;DHT22;7960;50.908;4.204;2022-12-10T13:20:45;0.80;99.90
15717;DHT22;7960;50.908;4.204;2022-12-10T13:23:31;0.80;99.90
15717;DHT22;7960;50.908;4.204;2022-12-10T13:26:00;0.80;99.90
15717;DHT22;7960;50.908;4.204;2022-12-10T13:28:31;0.80;99.90
15717;DHT22;7960;50.908;4.204;2022-12-10T13:31:17;0.80;99.90
15717;DHT22;7960;50.908;4.204;2022-12-10T13:33:47;0.80;99.90
15717;DHT22;7960;50.908;4.204;2022-12-10T13:36:20;0.80;99.90
15717;DHT22;7960;50.908;4.204;2022-12-10T13:38:57;0.90;99.90
15717;DHT22;7960;50.908;4.204;2022-12-10T13:41:40;0.90;99.90
15717;DHT22;7960;50.908;4.204;2022-12-10T13:44:33;0.80;99.90
15717;DHT22;7960;50.908;4.204;2022-12-10T13:47:05;0.80;99.90
15717;DHT22;7960;50.908;4.204;2022-12-10T13:49:51;0.90;99.90
15717;DHT22;7960;50.908;4.204;2022-12-10T13:52:23;0.80;99.90
15717;DHT22;7960;50.908;4.204;2022-12-10T13:55:20;0.90;99.90
15717;DHT22;7960;50.908;4.204;2022-12-10T13:58:00;0.90;99.90
15717;DHT22;7960;50.908;4.204;2022-12-10T14:00:37;0.90;99.90
15717;DHT22;7960;50.908;4.204;2022-12-10T14:06:15;0.90;99.90
15717;DHT22;7960;50.908;4.204;2022-12-10T14:08:53;0.90;99.90
15717;DHT22;7960;50.908;4.204;2022-12-10T14:11:24;0.90;99.90
15717;DHT22;7960;50.908;4.204;2022-12-10T14:13:56;1.00;99.90
15717;DHT22;7960;50.908;4.204;2022-12-10T14:16:27;0.90;99.90
15717;DHT22;7960;50.908;4.204;2022-12-10T14:18:58;0.90;99.90
15717;DHT22;7960;50.908;4.204;2022-12-10T14:21:27;0.90;99.90
15717;DHT22;7960;50.908;4.204;2022-12-10T14:23:58;1.00;99.90
15717;DHT22;7960;50.908;4.204;2022-12-10T14:26:29;1.00;99.90
15717;DHT22;7960;50.908;4.204;2022-12-10T14:28:58;1.00;99.90
15717;DHT22;7960;50.908;4.204;2022-12-10T14:31:28;1.00;99.90
15717;DHT22;7960;50.908;4.204;2022-12-10T14:34:00;1.10;99.90
15717;DHT22;7960;50.908;4.204;2022-12-10T14:36:31;1.00;99.90
15717;DHT22;7960;50.908;4.204;2022-12-10T14:38:59;1.00;99.90
15717;DHT22;7960;50.908;4.204;2022-12-10T14:41:30;1.00;99.90
15717;DHT22;7960;50.908;4.204;2022-12-10T14:44:01;1.00;99.90
15717;DHT22;7960;50.908;4.204;2022-12-10T14:46:30;1.10;99.90
15717;DHT22;7960;50.908;4.204;2022-12-10T14:48:58;1.10;99.90
15717;DHT22;7960;50.908;4.204;2022-12-10T14:51:26;1.20;99.90
15717;DHT22;7960;50.908;4.204;2022-12-10T14:53:58;1.20;99.90
15717;DHT22;7960;50.908;4.204;2022-12-10T14:56:28;1.20;99.90
15717;DHT22;7960;50.908;4.204;2022-12-10T14:59:02;1.20;99.90
15717;DHT22;7960;50.908;4.204;2022-12-10T15:01:32;1.20;99.90
15717;DHT22;7960;50.908;4.204;2022-12-10T15:04:03;1.20;99.90
15717;DHT22;7960;50.908;4.204;2022-12-10T15:06:34;1.10;99.90
15717;DHT22;7960;50.908;4.204;2022-12-10T15:09:02;1.10;99.90
15717;DHT22;7960;50.908;4.204;2022-12-10T15:11:31;1.10;99.90
15717;DHT22;7960;50.908;4.204;2022-12-10T15:14:00;1.20;99.90
15717;DHT22;7960;50.908;4.204;2022-12-10T15:16:30;1.20;99.90
15717;DHT22;7960;50.908;4.204;2022-12-10T15:19:08;1.30;99.90
15717;DHT22;7960;50.908;4.204;2022-12-10T15:21:41;1.30;99.90
15717;DHT22;7960;50.908;4.204;2022-12-10T15:24:15;1.30;99.90
15717;DHT22;7960;50.908;4.204;2022-12-10T15:26:44;1.30;99.90
15717;DHT22;7960;50.908;4.204;2022-12-10T15:29:29;1.30;99.90
15717;DHT22;7960;50.908;4.204;2022-12-10T15:31:58;1.30;99.90
15717;DHT22;7960;50.908;4.204;2022-12-10T15:34:26;1.30;99.90
15717;DHT22;7960;50.908;4.204;2022-12-10T15:36:56;1.40;99.90
15717;DHT22;7960;50.908;4.204;2022-12-10T15:39:25;1.30;99.90
15717;DHT22;7960;50.908;4.204;2022-12-10T15:41:55;1.30;99.90
15717;DHT22;7960;50.908;4.204;2022-12-10T15:44:30;1.20;99.90
15717;DHT22;7960;50.908;4.204;2022-12-10T15:47:00;1.20;99.90
15717;DHT22;7960;50.908;4.204;2022-12-10T15:49:27;1.20;99.90
15717;DHT22;7960;50.908;4.204;2022-12-10T15:51:54;1.20;99.90
15717;DHT22;7960;50.908;4.204;2022-12-10T15:54:22;1.20;99.90
15717;DHT22;7960;50.908;4.204;2022-12-10T15:56:51;1.20;99.90
15717;DHT22;7960;50.908;4.204;2022-12-10T15:59:19;1.20;99.90
15717;DHT22;7960;50.908;4.204;2022-12-10T16:01:46;1.30;99.90
15717;DHT22;7960;50.908;4.204;2022-12-10T16:04:12;1.20;99.90
15717;DHT22;7960;50.908;4.204;2022-12-10T16:06:40;1.30;99.90
15717;DHT22;7960;50.908;4.204;2022-12-10T16:09:08;1.30;99.90
15717;DHT22;7960;50.908;4.204;2022-12-10T16:11:35;1.30;99.90
15717;DHT22;7960;50.908;4.204;2022-12-10T16:14:03;1.30;99.90
15717;DHT22;7960;50.908;4.204;2022-12-10T16:16:33;1.20;99.90
15717;DHT22;7960;50.908;4.204;2022-12-10T16:19:00;1.30;99.90
15717;DHT22;7960;50.908;4.204;2022-12-10T16:21:26;1.30;99.90
15717;DHT22;7960;50.908;4.204;2022-12-10T16:23:53;1.30;99.90